sensor_id;sensor_type;location;lat;lon;timestamp;P1;durP1;ratioP1;P2;durP2;ratioP2
35366;SDS011;21465;52.278;20.962;2023-06-14T00:02:11;4.15;;;3.85;;
35366;SDS011;21465;52.278;20.962;2023-06-14T00:04:37;4.10;;;3.80;;
35366;SDS011;21465;52.278;20.962;2023-06-14T00:07:05;3.85;;;3.53;;
35366;SDS011;21465;52.278;20.962;2023-06-14T00:09:34;4.30;;;4.00;;
35366;SDS011;21465;52.278;20.962;2023-06-14T00:12:00;4.05;;;3.75;;
35366;SDS011;21465;52.278;20.962;2023-06-14T00:14:27;4.57;;;3.83;;
35366;SDS011;21465;52.278;20.962;2023-06-14T00:16:53;4.47;;;4.07;;
35366;SDS011;21465;52.278;20.962;2023-06-14T00:19:24;4.03;;;3.72;;
35366;SDS011;21465;52.278;20.962;2023-06-14T00:21:51;3.67;;;3.45;;
35366;SDS011;21465;52.278;20.962;2023-06-14T00:24:19;3.97;;;3.60;;
35366;SDS011;21465;52.278;20.962;2023-06-14T00:26:45;4.25;;;3.95;;
35366;SDS011;21465;52.278;20.962;2023-06-14T00:29:10;4.43;;;4.05;;
35366;SDS011;21465;52.278;20.962;2023-06-14T00:31:36;3.95;;;3.75;;
35366;SDS011;21465;52.278;20.962;2023-06-14T00:34:02;4.65;;;4.25;;
35366;SDS011;21465;52.278;20.962;2023-06-14T00:36:27;4.25;;;3.90;;
35366;SDS011;21465;52.278;20.962;2023-06-14T00:38:53;4.82;;;3.70;;
35366;SDS011;21465;52.278;20.962;2023-06-14T00:41:19;4.40;;;4.00;;
35366;SDS011;21465;52.278;20.962;2023-06-14T00:43:44;4.32;;;3.92;;
35366;SDS011;21465;52.278;20.962;2023-06-14T00:46:10;4.28;;;3.90;;
35366;SDS011;21465;52.278;20.962;2023-06-14T00:48:36;4.00;;;3.70;;
35366;SDS011;21465;52.278;20.962;2023-06-14T00:51:02;4.00;;;3.70;;
35366;SDS011;21465;52.278;20.962;2023-06-14T00:53:29;4.13;;;3.83;;
35366;SDS011;21465;52.278;20.962;2023-06-14T00:56:02;3.88;;;3.67;;
35366;SDS011;21465;52.278;20.962;2023-06-14T00:58:28;3.70;;;3.50;;
35366;SDS011;21465;52.278;20.962;2023-06-14T01:00:54;4.15;;;3.80;;
35366;SDS011;21465;52.278;20.962;2023-06-14T01:03:20;3.67;;;3.47;;
35366;SDS011;21465;52.278;20.962;2023-06-14T01:05:49;4.40;;;4.00;;
35366;SDS011;21465;52.278;20.962;2023-06-14T01:08:35;4.32;;;4.00;;
35366;SDS011;21465;52.278;20.962;2023-06-14T01:11:33;3.83;;;3.42;;
35366;SDS011;21465;52.278;20.962;2023-06-14T01:14:05;4.00;;;3.70;;
35366;SDS011;21465;52.278;20.962;2023-06-14T01:16:33;3.80;;;3.50;;
35366;SDS011;21465;52.278;20.962;2023-06-14T01:19:01;3.78;;;3.47;;
35366;SDS011;21465;52.278;20.962;2023-06-14T01:21:27;3.67;;;3.47;;
35366;SDS011;21465;52.278;20.962;2023-06-14T01:23:54;3.67;;;3.47;;
35366;SDS011;21465;52.278;20.962;2023-06-14T01:26:21;3.92;;;3.63;;
35366;SDS011;21465;52.278;20.962;2023-06-14T01:28:47;5.70;;;5.30;;
35366;SDS011;21465;52.278;20.962;2023-06-14T01:31:16;5.68;;;5.28;;
35366;SDS011;21465;52.278;20.962;2023-06-14T01:33:43;5.70;;;5.30;;
35366;SDS011;21465;52.278;20.962;2023-06-14T01:36:10;5.70;;;5.25;;
35366;SDS011;21465;52.278;20.962;2023-06-14T01:38:36;5.70;;;5.25;;
35366;SDS011;21465;52.278;20.962;2023-06-14T01:41:02;5.60;;;5.20;;
35366;SDS011;21465;52.278;20.962;2023-06-14T01:43:30;5.38;;;4.93;;
35366;SDS011;21465;52.278;20.962;2023-06-14T01:45:56;5.57;;;5.18;;
35366;SDS011;21465;52.278;20.962;2023-06-14T01:48:22;5.22;;;4.82;;
35366;SDS011;21465;52.278;20.962;2023-06-14T01:50:49;5.85;;;5.45;;
35366;SDS011;21465;52.278;20.962;2023-06-14T01:53:15;5.35;;;4.95;;
35366;SDS011;21465;52.278;20.962;2023-06-14T01:55:41;5.53;;;5.13;;
35366;SDS011;21465;52.278;20.962;2023-06-14T01:58:10;5.78;;;5.38;;
35366;SDS011;21465;52.278;20.962;2023-06-14T02:00:36;5.07;;;4.78;;
35366;SDS011;21465;52.278;20.962;2023-06-14T02:03:02;4.90;;;4.50;;
35366;SDS011;21465;52.278;20.962;2023-06-14T02:05:31;5.03;;;4.68;;
35366;SDS011;21465;52.278;20.962;2023-06-14T02:07:57;4.50;;;4.20;;
35366;SDS011;21465;52.278;20.962;2023-06-14T02:10:24;4.88;;;4.57;;
35366;SDS011;21465;52.278;20.962;2023-06-14T02:12:49;5.10;;;4.80;;
35366;SDS011;21465;52.278;20.962;2023-06-14T02:15:15;5.05;;;4.65;;
35366;SDS011;21465;52.278;20.962;2023-06-14T02:17:47;5.07;;;4.75;;
35366;SDS011;21465;52.278;20.962;2023-06-14T02:20:14;4.75;;;4.45;;
35366;SDS011;21465;52.278;20.962;2023-06-14T02:22:40;5.18;;;4.80;;
35366;SDS011;21465;52.278;20.962;2023-06-14T02:25:08;4.70;;;4.40;;
35366;SDS011;21465;52.278;20.962;2023-06-14T02:27:34;4.22;;;3.92;;
35366;SDS011;21465;52.278;20.962;2023-06-14T02:30:00;4.97;;;4.55;;
35366;SDS011;21465;52.278;20.962;2023-06-14T02:32:26;4.32;;;4.03;;
35366;SDS011;21465;52.278;20.962;2023-06-14T02:34:53;5.00;;;4.60;;
35366;SDS011;21465;52.278;20.962;2023-06-14T02:37:19;4.78;;;4.43;;
35366;SDS011;21465;52.278;20.962;2023-06-14T02:39:46;4.88;;;4.47;;
35366;SDS011;21465;52.278;20.962;2023-06-14T02:42:11;4.95;;;4.45;;
35366;SDS011;21465;52.278;20.962;2023-06-14T02:44:37;4.50;;;4.20;;
35366;SDS011;21465;52.278;20.962;2023-06-14T02:47:03;4.68;;;4.28;;
35366;SDS011;21465;52.278;20.962;2023-06-14T02:49:30;4.78;;;4.30;;
35366;SDS011;21465;52.278;20.962;2023-06-14T02:51:56;4.53;;;4.13;;
35366;SDS011;21465;52.278;20.962;2023-06-14T02:54:21;5.43;;;4.28;;
35366;SDS011;21465;52.278;20.962;2023-06-14T02:56:47;4.63;;;4.18;;
35366;SDS011;21465;52.278;20.962;2023-06-14T02:59:13;4.55;;;4.25;;
35366;SDS011;21465;52.278;20.962;2023-06-14T03:01:40;4.80;;;4.40;;
35366;SDS011;21465;52.278;20.962;2023-06-14T03:04:07;4.65;;;4.25;;
35366;SDS011;21465;52.278;20.962;2023-06-14T03:06:33;4.65;;;4.28;;
35366;SDS011;21465;52.278;20.962;2023-06-14T03:08:59;4.65;;;4.35;;
35366;SDS011;21465;52.278;20.962;2023-06-14T03:11:29;5.22;;;4.82;;
35366;SDS011;21465;52.278;20.962;2023-06-14T03:13:55;4.57;;;4.28;;
35366;SDS011;21465;52.278;20.962;2023-06-14T03:16:21;5.53;;;5.03;;
35366;SDS011;21465;52.278;20.962;2023-06-14T03:18:52;5.78;;;5.28;;
35366;SDS011;21465;52.278;20.962;2023-06-14T03:21:19;5.20;;;4.78;;
35366;SDS011;21465;52.278;20.962;2023-06-14T03:23:46;4.93;;;4.60;;
35366;SDS011;21465;52.278;20.962;2023-06-14T03:26:14;4.63;;;4.22;;
35366;SDS011;21465;52.278;20.962;2023-06-14T03:28:43;5.33;;;4.83;;
35366;SDS011;21465;52.278;20.962;2023-06-14T03:31:10;5.20;;;4.80;;
35366;SDS011;21465;52.278;20.962;2023-06-14T03:33:36;4.90;;;4.40;;
35366;SDS011;21465;52.278;20.962;2023-06-14T03:36:02;4.82;;;4.45;;
35366;SDS011;21465;52.278;20.962;2023-06-14T03:38:28;7.85;;;4.43;;
35366;SDS011;21465;52.278;20.962;2023-06-14T03:40:54;4.35;;;4.05;;
35366;SDS011;21465;52.278;20.962;2023-06-14T03:43:20;4.43;;;4.03;;
35366;SDS011;21465;52.278;20.962;2023-06-14T03:45:46;4.30;;;3.85;;
35366;SDS011;21465;52.278;20.962;2023-06-14T03:48:11;4.88;;;4.32;;
35366;SDS011;21465;52.278;20.962;2023-06-14T03:50:37;4.20;;;3.75;;
35366;SDS011;21465;52.278;20.962;2023-06-14T03:53:04;4.38;;;3.97;;
35366;SDS011;21465;52.278;20.962;2023-06-14T03:55:30;4.78;;;4.40;;
35366;SDS011;21465;52.278;20.962;2023-06-14T03:57:57;3.85;;;3.60;;
35366;SDS011;21465;52.278;20.962;2023-06-14T04:00:22;3.88;;;3.67;;
35366;SDS011;21465;52.278;20.962;2023-06-14T04:02:48;4.47;;;3.92;;
35366;SDS011;21465;52.278;20.962;2023-06-14T04:05:14;4.20;;;3.83;;
35366;SDS011;21465;52.278;20.962;2023-06-14T04:07:42;6.00;;;4.30;;
35366;SDS011;21465;52.278;20.962;2023-06-14T04:10:13;4.50;;;4.10;;
35366;SDS011;21465;52.278;20.962;2023-06-14T04:12:39;4.10;;;3.80;;
35366;SDS011;21465;52.278;20.962;2023-06-14T04:15:05;3.75;;;3.45;;
35366;SDS011;21465;52.278;20.962;2023-06-14T04:17:32;3.97;;;3.45;;
35366;SDS011;21465;52.278;20.962;2023-06-14T04:20:00;4.13;;;3.83;;
35366;SDS011;21465;52.278;20.962;2023-06-14T04:22:29;4.00;;;3.70;;
35366;SDS011;21465;52.278;20.962;2023-06-14T04:24:55;4.20;;;3.90;;
35366;SDS011;21465;52.278;20.962;2023-06-14T04:27:22;3.90;;;3.67;;
35366;SDS011;21465;52.278;20.962;2023-06-14T04:29:51;3.50;;;3.30;;
35366;SDS011;21465;52.278;20.962;2023-06-14T04:32:23;3.78;;;3.58;;
35366;SDS011;21465;52.278;20.962;2023-06-14T04:34:53;4.00;;;3.63;;
35366;SDS011;21465;52.278;20.962;2023-06-14T04:37:19;4.40;;;3.90;;
35366;SDS011;21465;52.278;20.962;2023-06-14T04:39:48;3.85;;;3.65;;
35366;SDS011;21465;52.278;20.962;2023-06-14T04:42:15;4.10;;;3.72;;
35366;SDS011;21465;52.278;20.962;2023-06-14T04:44:42;3.85;;;3.55;;
35366;SDS011;21465;52.278;20.962;2023-06-14T04:47:12;4.10;;;3.80;;
35366;SDS011;21465;52.278;20.962;2023-06-14T04:49:38;4.85;;;3.80;;
35366;SDS011;21465;52.278;20.962;2023-06-14T04:52:05;4.18;;;3.88;;
35366;SDS011;21465;52.278;20.962;2023-06-14T04:54:32;4.13;;;3.83;;
35366;SDS011;21465;52.278;20.962;2023-06-14T04:56:59;4.00;;;3.70;;
35366;SDS011;21465;52.278;20.962;2023-06-14T04:59:25;3.97;;;3.67;;
35366;SDS011;21465;52.278;20.962;2023-06-14T05:01:51;4.10;;;3.45;;
35366;SDS011;21465;52.278;20.962;2023-06-14T05:04:19;3.60;;;3.30;;
35366;SDS011;21465;52.278;20.962;2023-06-14T05:06:45;3.50;;;3.20;;
35366;SDS011;21465;52.278;20.962;2023-06-14T05:09:14;4.65;;;4.35;;
35366;SDS011;21465;52.278;20.962;2023-06-14T05:11:40;3.80;;;3.50;;
35366;SDS011;21465;52.278;20.962;2023-06-14T05:14:10;4.03;;;3.63;;
35366;SDS011;21465;52.278;20.962;2023-06-14T05:16:36;3.78;;;3.47;;
35366;SDS011;21465;52.278;20.962;2023-06-14T05:19:02;3.90;;;3.60;;
35366;SDS011;21465;52.278;20.962;2023-06-14T05:21:30;3.92;;;3.63;;
35366;SDS011;21465;52.278;20.962;2023-06-14T05:23:56;3.85;;;3.53;;
35366;SDS011;21465;52.278;20.962;2023-06-14T05:26:23;3.60;;;3.40;;
35366;SDS011;21465;52.278;20.962;2023-06-14T05:31:22;3.58;;;3.30;;
35366;SDS011;21465;52.278;20.962;2023-06-14T05:33:51;3.67;;;3.47;;
35366;SDS011;21465;52.278;20.962;2023-06-14T05:36:19;4.32;;;3.50;;
35366;SDS011;21465;52.278;20.962;2023-06-14T05:38:49;3.78;;;3.47;;
35366;SDS011;21465;52.278;20.962;2023-06-14T05:41:18;4.00;;;3.65;;
35366;SDS011;21465;52.278;20.962;2023-06-14T05:43:46;3.95;;;3.65;;
35366;SDS011;21465;52.278;20.962;2023-06-14T05:46:12;4.28;;;3.90;;
35366;SDS011;21465;52.278;20.962;2023-06-14T05:48:37;3.92;;;3.63;;
35366;SDS011;21465;52.278;20.962;2023-06-14T05:51:03;4.35;;;3.80;;
35366;SDS011;21465;52.278;20.962;2023-06-14T05:53:29;3.97;;;3.67;;
35366;SDS011;21465;52.278;20.962;2023-06-14T05:55:55;3.83;;;3.53;;
35366;SDS011;21465;52.278;20.962;2023-06-14T05:58:21;3.72;;;3.42;;
35366;SDS011;21465;52.278;20.962;2023-06-14T06:00:47;3.80;;;3.38;;
35366;SDS011;21465;52.278;20.962;2023-06-14T06:03:13;3.72;;;3.42;;
35366;SDS011;21465;52.278;20.962;2023-06-14T06:05:39;3.42;;;3.22;;
35366;SDS011;21465;52.278;20.962;2023-06-14T06:08:05;3.90;;;3.70;;
35366;SDS011;21465;52.278;20.962;2023-06-14T06:10:31;3.50;;;3.20;;
35366;SDS011;21465;52.278;20.962;2023-06-14T06:12:57;4.25;;;3.85;;
35366;SDS011;21465;52.278;20.962;2023-06-14T06:15:23;4.10;;;3.70;;
35366;SDS011;21465;52.278;20.962;2023-06-14T06:17:48;3.78;;;3.47;;
35366;SDS011;21465;52.278;20.962;2023-06-14T06:20:14;4.50;;;4.13;;
35366;SDS011;21465;52.278;20.962;2023-06-14T06:22:40;4.00;;;3.75;;
35366;SDS011;21465;52.278;20.962;2023-06-14T06:25:06;5.22;;;3.92;;
35366;SDS011;21465;52.278;20.962;2023-06-14T06:27:32;4.65;;;4.22;;
35366;SDS011;21465;52.278;20.962;2023-06-14T06:29:58;5.15;;;4.10;;
35366;SDS011;21465;52.278;20.962;2023-06-14T06:32:24;3.85;;;3.55;;
35366;SDS011;21465;52.278;20.962;2023-06-14T06:34:50;3.70;;;3.50;;
35366;SDS011;21465;52.278;20.962;2023-06-14T06:37:17;4.43;;;4.03;;
35366;SDS011;21465;52.278;20.962;2023-06-14T06:39:42;3.92;;;3.63;;
35366;SDS011;21465;52.278;20.962;2023-06-14T06:42:08;6.20;;;4.20;;
35366;SDS011;21465;52.278;20.962;2023-06-14T06:44:34;4.50;;;4.10;;
35366;SDS011;21465;52.278;20.962;2023-06-14T06:47:00;4.28;;;3.97;;
35366;SDS011;21465;52.278;20.962;2023-06-14T06:49:26;4.45;;;4.00;;
35366;SDS011;21465;52.278;20.962;2023-06-14T06:52:02;4.10;;;3.80;;
35366;SDS011;21465;52.278;20.962;2023-06-14T06:54:32;4.88;;;4.30;;
35366;SDS011;21465;52.278;20.962;2023-06-14T06:56:58;4.47;;;4.15;;
35366;SDS011;21465;52.278;20.962;2023-06-14T06:59:24;4.63;;;4.07;;
35366;SDS011;21465;52.278;20.962;2023-06-14T07:01:50;5.20;;;4.35;;
35366;SDS011;21465;52.278;20.962;2023-06-14T07:04:16;4.25;;;3.90;;
35366;SDS011;21465;52.278;20.962;2023-06-14T07:06:42;4.90;;;4.03;;
35366;SDS011;21465;52.278;20.962;2023-06-14T07:09:08;4.50;;;4.20;;
35366;SDS011;21465;52.278;20.962;2023-06-14T07:11:40;6.97;;;4.50;;
35366;SDS011;21465;52.278;20.962;2023-06-14T07:14:07;4.38;;;3.97;;
35366;SDS011;21465;52.278;20.962;2023-06-14T07:16:33;4.05;;;3.75;;
35366;SDS011;21465;52.278;20.962;2023-06-14T07:18:59;5.60;;;4.90;;
35366;SDS011;21465;52.278;20.962;2023-06-14T07:21:25;4.30;;;3.65;;
35366;SDS011;21465;52.278;20.962;2023-06-14T07:23:54;5.13;;;4.22;;
35366;SDS011;21465;52.278;20.962;2023-06-14T07:26:20;4.30;;;4.00;;
35366;SDS011;21465;52.278;20.962;2023-06-14T07:28:47;3.45;;;3.22;;
35366;SDS011;21465;52.278;20.962;2023-06-14T07:31:14;4.07;;;3.78;;
35366;SDS011;21465;52.278;20.962;2023-06-14T07:33:41;7.38;;;4.10;;
35366;SDS011;21465;52.278;20.962;2023-06-14T07:36:07;4.43;;;4.03;;
35366;SDS011;21465;52.278;20.962;2023-06-14T07:38:33;4.05;;;3.70;;
35366;SDS011;21465;52.278;20.962;2023-06-14T07:40:59;4.15;;;3.63;;
35366;SDS011;21465;52.278;20.962;2023-06-14T07:43:25;4.05;;;3.70;;
35366;SDS011;21465;52.278;20.962;2023-06-14T07:45:51;4.20;;;3.90;;
35366;SDS011;21465;52.278;20.962;2023-06-14T07:48:17;3.90;;;3.60;;
35366;SDS011;21465;52.278;20.962;2023-06-14T07:50:43;3.78;;;3.28;;
35366;SDS011;21465;52.278;20.962;2023-06-14T07:53:09;4.28;;;3.58;;
35366;SDS011;21465;52.278;20.962;2023-06-14T07:55:34;5.43;;;4.10;;
35366;SDS011;21465;52.278;20.962;2023-06-14T07:58:03;3.55;;;3.30;;
35366;SDS011;21465;52.278;20.962;2023-06-14T08:00:28;3.90;;;3.63;;
35366;SDS011;21465;52.278;20.962;2023-06-14T08:02:54;3.47;;;3.15;;
35366;SDS011;21465;52.278;20.962;2023-06-14T08:05:24;3.50;;;3.30;;
35366;SDS011;21465;52.278;20.962;2023-06-14T08:07:53;3.88;;;3.58;;
35366;SDS011;21465;52.278;20.962;2023-06-14T08:10:19;3.45;;;3.15;;
35366;SDS011;21465;52.278;20.962;2023-06-14T08:12:45;3.25;;;2.95;;
35366;SDS011;21465;52.278;20.962;2023-06-14T08:15:11;3.55;;;3.25;;
35366;SDS011;21465;52.278;20.962;2023-06-14T08:17:37;3.47;;;3.17;;
35366;SDS011;21465;52.278;20.962;2023-06-14T08:20:03;3.72;;;3.33;;
35366;SDS011;21465;52.278;20.962;2023-06-14T08:22:30;3.85;;;3.55;;
35366;SDS011;21465;52.278;20.962;2023-06-14T08:25:02;3.92;;;3.40;;
35366;SDS011;21465;52.278;20.962;2023-06-14T08:27:28;3.70;;;3.40;;
35366;SDS011;21465;52.278;20.962;2023-06-14T08:29:54;3.85;;;3.00;;
35366;SDS011;21465;52.278;20.962;2023-06-14T08:32:20;3.05;;;2.85;;
35366;SDS011;21465;52.278;20.962;2023-06-14T08:34:46;3.60;;;3.30;;
35366;SDS011;21465;52.278;20.962;2023-06-14T08:37:12;3.40;;;3.10;;
35366;SDS011;21465;52.278;20.962;2023-06-14T08:39:37;4.47;;;3.25;;
35366;SDS011;21465;52.278;20.962;2023-06-14T08:42:03;3.15;;;2.80;;
35366;SDS011;21465;52.278;20.962;2023-06-14T08:44:29;3.38;;;3.15;;
35366;SDS011;21465;52.278;20.962;2023-06-14T08:46:56;3.28;;;3.08;;
35366;SDS011;21465;52.278;20.962;2023-06-14T08:49:24;3.05;;;2.85;;
35366;SDS011;21465;52.278;20.962;2023-06-14T08:51:52;3.40;;;3.15;;
35366;SDS011;21465;52.278;20.962;2023-06-14T08:54:22;3.78;;;3.35;;
35366;SDS011;21465;52.278;20.962;2023-06-14T08:56:49;3.17;;;2.70;;
35366;SDS011;21465;52.278;20.962;2023-06-14T08:59:17;3.72;;;2.88;;
35366;SDS011;21465;52.278;20.962;2023-06-14T09:01:43;4.03;;;2.40;;
35366;SDS011;21465;52.278;20.962;2023-06-14T09:04:10;2.75;;;2.55;;
35366;SDS011;21465;52.278;20.962;2023-06-14T09:06:36;3.75;;;2.50;;
35366;SDS011;21465;52.278;20.962;2023-06-14T09:09:02;3.35;;;2.83;;
35366;SDS011;21465;52.278;20.962;2023-06-14T09:11:30;4.43;;;2.67;;
35366;SDS011;21465;52.278;20.962;2023-06-14T09:13:55;2.97;;;2.33;;
35366;SDS011;21465;52.278;20.962;2023-06-14T09:16:21;2.78;;;2.58;;
35366;SDS011;21465;52.278;20.962;2023-06-14T09:18:47;2.55;;;2.35;;
35366;SDS011;21465;52.278;20.962;2023-06-14T09:21:14;4.60;;;2.85;;
35366;SDS011;21465;52.278;20.962;2023-06-14T09:23:42;3.30;;;2.75;;
35366;SDS011;21465;52.278;20.962;2023-06-14T09:26:09;2.70;;;2.40;;
35366;SDS011;21465;52.278;20.962;2023-06-14T09:28:44;2.50;;;2.30;;
35366;SDS011;21465;52.278;20.962;2023-06-14T09:31:12;3.75;;;2.70;;
35366;SDS011;21465;52.278;20.962;2023-06-14T09:33:43;2.88;;;2.58;;
35366;SDS011;21465;52.278;20.962;2023-06-14T09:36:17;4.28;;;2.92;;
35366;SDS011;21465;52.278;20.962;2023-06-14T09:38:56;2.97;;;2.47;;
35366;SDS011;21465;52.278;20.962;2023-06-14T09:44:02;2.85;;;2.20;;
35366;SDS011;21465;52.278;20.962;2023-06-14T09:46:30;2.13;;;1.93;;
35366;SDS011;21465;52.278;20.962;2023-06-14T09:48:56;2.97;;;2.10;;
35366;SDS011;21465;52.278;20.962;2023-06-14T09:51:23;4.60;;;2.20;;
35366;SDS011;21465;52.278;20.962;2023-06-14T09:53:49;2.40;;;2.20;;
35366;SDS011;21465;52.278;20.962;2023-06-14T09:56:20;3.38;;;2.42;;
35366;SDS011;21465;52.278;20.962;2023-06-14T09:58:49;2.53;;;2.33;;
35366;SDS011;21465;52.278;20.962;2023-06-14T10:01:20;2.38;;;2.13;;
35366;SDS011;21465;52.278;20.962;2023-06-14T10:03:46;3.00;;;2.70;;
35366;SDS011;21465;52.278;20.962;2023-06-14T10:06:21;4.00;;;2.55;;
35366;SDS011;21465;52.278;20.962;2023-06-14T10:08:52;2.88;;;2.67;;
35366;SDS011;21465;52.278;20.962;2023-06-14T10:11:22;5.35;;;2.70;;
35366;SDS011;21465;52.278;20.962;2023-06-14T10:13:48;2.72;;;2.20;;
35366;SDS011;21465;52.278;20.962;2023-06-14T10:16:17;2.35;;;2.15;;
35366;SDS011;21465;52.278;20.962;2023-06-14T10:24:23;3.08;;;2.38;;
35366;SDS011;21465;52.278;20.962;2023-06-14T10:26:54;3.92;;;2.50;;
35366;SDS011;21465;52.278;20.962;2023-06-14T10:29:22;2.70;;;2.40;;
35366;SDS011;21465;52.278;20.962;2023-06-14T10:31:48;3.25;;;2.10;;
35366;SDS011;21465;52.278;20.962;2023-06-14T10:34:28;3.08;;;2.05;;
35366;SDS011;21465;52.278;20.962;2023-06-14T10:37:13;4.32;;;2.10;;
35366;SDS011;21465;52.278;20.962;2023-06-14T10:39:40;2.35;;;1.98;;
35366;SDS011;21465;52.278;20.962;2023-06-14T10:42:07;2.08;;;1.73;;
35366;SDS011;21465;52.278;20.962;2023-06-14T10:44:33;2.28;;;1.80;;
35366;SDS011;21465;52.278;20.962;2023-06-14T10:47:09;2.75;;;1.77;;
35366;SDS011;21465;52.278;20.962;2023-06-14T10:49:57;3.08;;;1.40;;
35366;SDS011;21465;52.278;20.962;2023-06-14T10:52:28;5.18;;;2.05;;
35366;SDS011;21465;52.278;20.962;2023-06-14T10:55:00;2.00;;;1.90;;
35366;SDS011;21465;52.278;20.962;2023-06-14T10:57:37;1.98;;;1.67;;
35366;SDS011;21465;52.278;20.962;2023-06-14T11:00:06;2.22;;;1.38;;
35366;SDS011;21465;52.278;20.962;2023-06-14T11:03:05;5.82;;;1.83;;
35366;SDS011;21465;52.278;20.962;2023-06-14T11:05:48;2.80;;;1.70;;
35366;SDS011;21465;52.278;20.962;2023-06-14T11:11:05;2.00;;;1.60;;
35366;SDS011;21465;52.278;20.962;2023-06-14T11:13:32;2.28;;;1.63;;
35366;SDS011;21465;52.278;20.962;2023-06-14T11:15:57;3.65;;;1.85;;
35366;SDS011;21465;52.278;20.962;2023-06-14T11:18:24;1.77;;;1.67;;
35366;SDS011;21465;52.278;20.962;2023-06-14T11:20:50;2.40;;;1.70;;
35366;SDS011;21465;52.278;20.962;2023-06-14T11:23:16;3.70;;;1.70;;
35366;SDS011;21465;52.278;20.962;2023-06-14T11:25:41;2.40;;;2.08;;
35366;SDS011;21465;52.278;20.962;2023-06-14T11:28:07;4.47;;;2.20;;
35366;SDS011;21465;52.278;20.962;2023-06-14T11:30:33;2.75;;;1.75;;
35366;SDS011;21465;52.278;20.962;2023-06-14T11:32:59;4.05;;;1.80;;
35366;SDS011;21465;52.278;20.962;2023-06-14T11:35:25;3.65;;;1.85;;
35366;SDS011;21465;52.278;20.962;2023-06-14T11:37:57;2.40;;;1.58;;
35366;SDS011;21465;52.278;20.962;2023-06-14T11:40:24;1.48;;;1.38;;
35366;SDS011;21465;52.278;20.962;2023-06-14T11:42:51;2.33;;;1.38;;
35366;SDS011;21465;52.278;20.962;2023-06-14T11:45:23;1.23;;;1.13;;
35366;SDS011;21465;52.278;20.962;2023-06-14T11:47:50;5.07;;;1.77;;
35366;SDS011;21465;52.278;20.962;2023-06-14T11:50:16;1.55;;;1.45;;
35366;SDS011;21465;52.278;20.962;2023-06-14T11:52:44;1.38;;;1.10;;
35366;SDS011;21465;52.278;20.962;2023-06-14T11:55:11;2.72;;;1.20;;
35366;SDS011;21465;52.278;20.962;2023-06-14T11:57:37;1.50;;;1.40;;
35366;SDS011;21465;52.278;20.962;2023-06-14T12:00:04;1.67;;;1.30;;
35366;SDS011;21465;52.278;20.962;2023-06-14T12:02:33;1.75;;;1.58;;
35366;SDS011;21465;52.278;20.962;2023-06-14T12:05:03;1.55;;;1.40;;
35366;SDS011;21465;52.278;20.962;2023-06-14T12:07:30;2.20;;;1.40;;
35366;SDS011;21465;52.278;20.962;2023-06-14T12:12:22;2.22;;;1.50;;
35366;SDS011;21465;52.278;20.962;2023-06-14T12:14:51;2.15;;;1.02;;
35366;SDS011;21465;52.278;20.962;2023-06-14T12:17:17;2.00;;;1.35;;
35366;SDS011;21465;52.278;20.962;2023-06-14T12:19:43;2.92;;;1.55;;
35366;SDS011;21465;52.278;20.962;2023-06-14T12:22:11;1.40;;;1.30;;
35366;SDS011;21465;52.278;20.962;2023-06-14T12:24:37;2.15;;;1.40;;
35366;SDS011;21465;52.278;20.962;2023-06-14T12:27:03;1.98;;;1.27;;
35366;SDS011;21465;52.278;20.962;2023-06-14T12:29:30;1.38;;;1.20;;
35366;SDS011;21465;52.278;20.962;2023-06-14T12:31:56;2.70;;;1.60;;
35366;SDS011;21465;52.278;20.962;2023-06-14T12:34:22;1.67;;;1.25;;
35366;SDS011;21465;52.278;20.962;2023-06-14T12:36:52;4.55;;;2.08;;
35366;SDS011;21465;52.278;20.962;2023-06-14T12:39:18;1.45;;;1.35;;
35366;SDS011;21465;52.278;20.962;2023-06-14T12:41:46;1.50;;;1.40;;
35366;SDS011;21465;52.278;20.962;2023-06-14T12:44:12;1.52;;;1.42;;
35366;SDS011;21465;52.278;20.962;2023-06-14T12:46:38;1.60;;;1.40;;
35366;SDS011;21465;52.278;20.962;2023-06-14T12:49:05;2.78;;;1.83;;
35366;SDS011;21465;52.278;20.962;2023-06-14T12:51:33;1.70;;;1.60;;
35366;SDS011;21465;52.278;20.962;2023-06-14T12:53:58;1.88;;;1.77;;
35366;SDS011;21465;52.278;20.962;2023-06-14T12:56:24;1.90;;;1.60;;
35366;SDS011;21465;52.278;20.962;2023-06-14T12:58:51;2.65;;;1.50;;
35366;SDS011;21465;52.278;20.962;2023-06-14T13:01:17;1.27;;;1.10;;
35366;SDS011;21465;52.278;20.962;2023-06-14T13:03:43;2.10;;;1.45;;
35366;SDS011;21465;52.278;20.962;2023-06-14T13:06:09;2.15;;;1.20;;
35366;SDS011;21465;52.278;20.962;2023-06-14T13:08:35;1.35;;;1.15;;
35366;SDS011;21465;52.278;20.962;2023-06-14T13:11:01;2.78;;;1.40;;
35366;SDS011;21465;52.278;20.962;2023-06-14T13:13:26;3.00;;;1.25;;
35366;SDS011;21465;52.278;20.962;2023-06-14T13:15:52;1.15;;;1.05;;
35366;SDS011;21465;52.278;20.962;2023-06-14T13:18:18;2.20;;;1.30;;
35366;SDS011;21465;52.278;20.962;2023-06-14T13:20:45;1.08;;;1.05;;
35366;SDS011;21465;52.278;20.962;2023-06-14T13:23:11;1.33;;;0.98;;
35366;SDS011;21465;52.278;20.962;2023-06-14T13:25:38;1.13;;;0.93;;
35366;SDS011;21465;52.278;20.962;2023-06-14T13:28:04;2.55;;;1.17;;
35366;SDS011;21465;52.278;20.962;2023-06-14T13:30:30;1.80;;;1.33;;
35366;SDS011;21465;52.278;20.962;2023-06-14T13:32:57;1.52;;;1.35;;
35366;SDS011;21465;52.278;20.962;2023-06-14T13:35:23;1.60;;;1.25;;
35366;SDS011;21465;52.278;20.962;2023-06-14T13:37:50;1.55;;;1.40;;
35366;SDS011;21465;52.278;20.962;2023-06-14T13:40:16;3.47;;;1.33;;
35366;SDS011;21465;52.278;20.962;2023-06-14T13:42:42;1.67;;;1.58;;
35366;SDS011;21465;52.278;20.962;2023-06-14T13:45:08;1.90;;;1.42;;
35366;SDS011;21465;52.278;20.962;2023-06-14T13:47:35;1.45;;;1.30;;
35366;SDS011;21465;52.278;20.962;2023-06-14T13:50:01;1.40;;;1.20;;
35366;SDS011;21465;52.278;20.962;2023-06-14T13:52:28;1.30;;;1.20;;
35366;SDS011;21465;52.278;20.962;2023-06-14T13:54:54;3.65;;;1.60;;
35366;SDS011;21465;52.278;20.962;2023-06-14T13:57:20;1.95;;;1.80;;
35366;SDS011;21465;52.278;20.962;2023-06-14T13:59:46;1.63;;;1.52;;
35366;SDS011;21465;52.278;20.962;2023-06-14T14:02:11;6.75;;;1.80;;
35366;SDS011;21465;52.278;20.962;2023-06-14T14:04:38;1.85;;;1.60;;
35366;SDS011;21465;52.278;20.962;2023-06-14T14:07:05;1.58;;;1.48;;
35366;SDS011;21465;52.278;20.962;2023-06-14T14:09:32;1.65;;;1.08;;
35366;SDS011;21465;52.278;20.962;2023-06-14T14:11:58;1.98;;;1.50;;
35366;SDS011;21465;52.278;20.962;2023-06-14T14:14:24;1.30;;;1.20;;
35366;SDS011;21465;52.278;20.962;2023-06-14T14:16:52;1.52;;;1.40;;
35366;SDS011;21465;52.278;20.962;2023-06-14T14:19:19;1.83;;;1.10;;
35366;SDS011;21465;52.278;20.962;2023-06-14T14:21:47;1.90;;;1.58;;
35366;SDS011;21465;52.278;20.962;2023-06-14T14:24:16;1.40;;;1.30;;
35366;SDS011;21465;52.278;20.962;2023-06-14T14:26:42;1.15;;;1.05;;
35366;SDS011;21465;52.278;20.962;2023-06-14T14:29:11;1.30;;;1.20;;
35366;SDS011;21465;52.278;20.962;2023-06-14T14:31:37;1.55;;;1.45;;
35366;SDS011;21465;52.278;20.962;2023-06-14T14:34:03;1.65;;;1.30;;
35366;SDS011;21465;52.278;20.962;2023-06-14T14:36:29;1.73;;;1.38;;
35366;SDS011;21465;52.278;20.962;2023-06-14T14:39:00;1.15;;;1.08;;
35366;SDS011;21465;52.278;20.962;2023-06-14T14:41:27;1.60;;;1.25;;
35366;SDS011;21465;52.278;20.962;2023-06-14T14:43:57;2.40;;;1.40;;
35366;SDS011;21465;52.278;20.962;2023-06-14T14:48:53;1.27;;;1.20;;
35366;SDS011;21465;52.278;20.962;2023-06-14T14:51:19;1.85;;;1.30;;
35366;SDS011;21465;52.278;20.962;2023-06-14T14:53:45;1.40;;;1.30;;